sensor_id;sensor_type;location;lat;lon;timestamp;pressure;altitude;pressure_sealevel;temperature;humidity
62402;BME280;48440;51.224;22.506;2022-12-29T00:02:07;99259.34;;;2.47;67.27
62402;BME280;48440;51.224;22.506;2022-12-29T00:04:32;99263.06;;;2.46;67.26
62402;BME280;48440;51.224;22.506;2022-12-29T00:07:01;99256.88;;;2.46;67.13
62402;BME280;48440;51.224;22.506;2022-12-29T00:09:34;99256.22;;;2.37;67.44
62402;BME280;48440;51.224;22.506;2022-12-29T00:12:01;99255.84;;;2.47;67.35
62402;BME280;48440;51.224;22.506;2022-12-29T00:14:27;99260.56;;;2.45;67.31
62402;BME280;48440;51.224;22.506;2022-12-29T00:17:12;99250.06;;;2.43;67.43
62402;BME280;48440;51.224;22.506;2022-12-29T00:19:38;99244.28;;;2.39;67.44
62402;BME280;48440;51.224;22.506;2022-12-29T00:22:22;99254.38;;;2.37;67.39
62402;BME280;48440;51.224;22.506;2022-12-29T00:25:07;99252.72;;;2.36;67.58
62402;BME280;48440;51.224;22.506;2022-12-29T00:27:52;99255.59;;;2.35;67.89
62402;BME280;48440;51.224;22.506;2022-12-29T00:30:35;99255.41;;;2.36;67.85
62402;BME280;48440;51.224;22.506;2022-12-29T00:33:21;99252.53;;;2.38;67.71
62402;BME280;48440;51.224;22.506;2022-12-29T00:36:18;99246.75;;;2.34;67.48
62402;BME280;48440;51.224;22.506;2022-12-29T00:38:53;99259.72;;;2.37;67.52
62402;BME280;48440;51.224;22.506;2022-12-29T00:41:39;99255.41;;;2.36;67.51
62402;BME280;48440;51.224;22.506;2022-12-29T00:44:23;99266.75;;;2.38;67.21
62402;BME280;48440;51.224;22.506;2022-12-29T00:46:49;99263.47;;;2.43;67.13
62402;BME280;48440;51.224;22.506;2022-12-29T00:49:15;99259.13;;;2.42;67.45
62402;BME280;48440;51.224;22.506;2022-12-29T00:52:01;99257.06;;;2.37;67.69
62402;BME280;48440;51.224;22.506;2022-12-29T00:54:30;99250.47;;;2.33;67.36
62402;BME280;48440;51.224;22.506;2022-12-29T00:56:56;99250.25;;;2.35;67.57
62402;BME280;48440;51.224;22.506;2022-12-29T00:59:21;99247.78;;;2.33;67.32
62402;BME280;48440;51.224;22.506;2022-12-29T01:01:50;99249.03;;;2.31;67.48
62402;BME280;48440;51.224;22.506;2022-12-29T01:04:16;99248.59;;;2.34;67.58
62402;BME280;48440;51.224;22.506;2022-12-29T01:06:41;99242.84;;;2.30;67.28
62402;BME280;48440;51.224;22.506;2022-12-29T01:09:08;99239.34;;;2.30;67.17
62402;BME280;48440;51.224;22.506;2022-12-29T01:11:52;99235.00;;;2.29;67.36
62402;BME280;48440;51.224;22.506;2022-12-29T01:14:19;99233.56;;;2.26;67.48
62402;BME280;48440;51.224;22.506;2022-12-29T01:16:45;99228.81;;;2.28;67.77
62402;BME280;48440;51.224;22.506;2022-12-29T01:19:11;99223.28;;;2.30;67.25
62402;BME280;48440;51.224;22.506;2022-12-29T01:21:37;99227.78;;;2.23;67.71
62402;BME280;48440;51.224;22.506;2022-12-29T01:24:02;99229.63;;;2.22;67.92
62402;BME280;48440;51.224;22.506;2022-12-29T01:26:28;99216.47;;;2.27;67.54
62402;BME280;48440;51.224;22.506;2022-12-29T01:28:54;99215.44;;;2.28;67.51
62402;BME280;48440;51.224;22.506;2022-12-29T01:31:19;99213.16;;;2.25;67.28
62402;BME280;48440;51.224;22.506;2022-12-29T01:33:45;99216.25;;;2.22;67.52
62402;BME280;48440;51.224;22.506;2022-12-29T01:36:13;99220.78;;;2.28;67.53
62402;BME280;48440;51.224;22.506;2022-12-29T01:38:39;99221.41;;;2.24;67.43
62402;BME280;48440;51.224;22.506;2022-12-29T01:41:07;99225.31;;;2.21;67.78
62402;BME280;48440;51.224;22.506;2022-12-29T01:43:47;99218.53;;;2.25;67.61
62402;BME280;48440;51.224;22.506;2022-12-29T01:46:26;99211.31;;;2.26;67.67
62402;BME280;48440;51.224;22.506;2022-12-29T01:51:29;99200.38;;;2.21;67.43
62402;BME280;48440;51.224;22.506;2022-12-29T01:53:58;99196.69;;;2.22;67.56
62402;BME280;48440;51.224;22.506;2022-12-29T01:56:26;99199.97;;;2.24;67.50
62402;BME280;48440;51.224;22.506;2022-12-29T01:59:00;99196.06;;;2.20;67.66
62402;BME280;48440;51.224;22.506;2022-12-29T02:01:27;99199.97;;;2.24;67.49
62402;BME280;48440;51.224;22.506;2022-12-29T02:03:52;99198.94;;;2.25;67.57
62402;BME280;48440;51.224;22.506;2022-12-29T02:06:22;99194.00;;;2.22;67.53
62402;BME280;48440;51.224;22.506;2022-12-29T02:08:50;99194.41;;;2.25;67.37
62402;BME280;48440;51.224;22.506;2022-12-29T02:11:17;99184.94;;;2.23;67.28
62402;BME280;48440;51.224;22.506;2022-12-29T02:13:42;99184.91;;;2.16;67.57
62402;BME280;48440;51.224;22.506;2022-12-29T02:27:31;99162.06;;;2.20;67.26
62402;BME280;48440;51.224;22.506;2022-12-29T02:30:16;99157.75;;;2.19;67.38
62402;BME280;48440;51.224;22.506;2022-12-29T02:41:23;99146.63;;;2.22;67.41
62402;BME280;48440;51.224;22.506;2022-12-29T02:44:16;99148.91;;;2.25;67.13
62402;BME280;48440;51.224;22.506;2022-12-29T02:46:53;99147.88;;;2.26;67.01
62402;BME280;48440;51.224;22.506;2022-12-29T02:49:32;99141.28;;;2.29;67.43
62402;BME280;48440;51.224;22.506;2022-12-29T02:52:06;99141.69;;;2.26;66.94
62402;BME280;48440;51.224;22.506;2022-12-29T02:54:33;99145.59;;;2.23;67.23
62402;BME280;48440;51.224;22.506;2022-12-29T03:00:10;99145.81;;;2.22;67.36
62402;BME280;48440;51.224;22.506;2022-12-29T03:05:18;99150.75;;;2.25;67.18
62402;BME280;48440;51.224;22.506;2022-12-29T03:14:06;99157.13;;;2.24;67.32
62402;BME280;48440;51.224;22.506;2022-12-29T03:16:46;99151.97;;;2.22;67.36
62402;BME280;48440;51.224;22.506;2022-12-29T03:21:53;99160.63;;;2.24;67.36
62402;BME280;48440;51.224;22.506;2022-12-29T03:24:43;99152.81;;;2.23;67.28
62402;BME280;48440;51.224;22.506;2022-12-29T03:27:14;99147.03;;;2.26;67.48
62402;BME280;48440;51.224;22.506;2022-12-29T03:29:46;99150.97;;;2.23;67.31
62402;BME280;48440;51.224;22.506;2022-12-29T03:32:18;99160.63;;;2.24;67.05
62402;BME280;48440;51.224;22.506;2022-12-29T03:34:44;99161.88;;;2.22;67.25
62402;BME280;48440;51.224;22.506;2022-12-29T03:37:13;99156.94;;;2.25;67.42
62402;BME280;48440;51.224;22.506;2022-12-29T03:39:41;99152.19;;;2.27;66.84
62402;BME280;48440;51.224;22.506;2022-12-29T03:42:13;99151.56;;;2.25;67.18
62402;BME280;48440;51.224;22.506;2022-12-29T03:44:42;99144.56;;;2.24;66.90
62402;BME280;48440;51.224;22.506;2022-12-29T03:47:10;99146.44;;;2.24;66.63
62402;BME280;48440;51.224;22.506;2022-12-29T03:49:35;99152.81;;;2.29;66.85
62402;BME280;48440;51.224;22.506;2022-12-29T03:52:01;99155.91;;;2.26;66.86
62402;BME280;48440;51.224;22.506;2022-12-29T03:54:27;99151.38;;;2.27;67.14
62402;BME280;48440;51.224;22.506;2022-12-29T03:56:53;99154.06;;;2.27;67.01
62402;BME280;48440;51.224;22.506;2022-12-29T03:59:18;99149.31;;;2.29;66.50
62402;BME280;48440;51.224;22.506;2022-12-29T04:01:43;99149.53;;;2.27;67.07
62402;BME280;48440;51.224;22.506;2022-12-29T04:04:09;99155.06;;;2.26;66.88
62402;BME280;48440;51.224;22.506;2022-12-29T04:06:35;99153.22;;;2.26;67.23
62402;BME280;48440;51.224;22.506;2022-12-29T04:09:00;99148.06;;;2.25;66.93
62402;BME280;48440;51.224;22.506;2022-12-29T04:11:26;99151.56;;;2.25;66.92
62402;BME280;48440;51.224;22.506;2022-12-29T04:13:52;99150.53;;;2.26;67.04
62402;BME280;48440;51.224;22.506;2022-12-29T04:16:17;99149.72;;;2.26;67.07
62402;BME280;48440;51.224;22.506;2022-12-29T04:18:43;99144.56;;;2.24;67.10
62402;BME280;48440;51.224;22.506;2022-12-29T04:21:08;99137.78;;;2.22;67.01
62402;BME280;48440;51.224;22.506;2022-12-29T04:23:37;99139.41;;;2.23;66.82
62402;BME280;48440;51.224;22.506;2022-12-29T04:26:04;99138.19;;;2.25;67.48
62402;BME280;48440;51.224;22.506;2022-12-29T04:28:32;99126.84;;;2.23;67.13
62402;BME280;48440;51.224;22.506;2022-12-29T04:30:57;99126.44;;;2.26;67.26
62402;BME280;48440;51.224;22.506;2022-12-29T04:33:23;99127.28;;;2.27;67.17
62402;BME280;48440;51.224;22.506;2022-12-29T04:35:49;99131.59;;;2.28;67.05
62402;BME280;48440;51.224;22.506;2022-12-29T04:38:16;99127.28;;;2.27;66.74
62402;BME280;48440;51.224;22.506;2022-12-29T04:40:42;99122.53;;;2.29;67.07
62402;BME280;48440;51.224;22.506;2022-12-29T04:43:08;99116.97;;;2.30;66.71
62402;BME280;48440;51.224;22.506;2022-12-29T04:45:34;99114.72;;;2.27;66.75
62402;BME280;48440;51.224;22.506;2022-12-29T04:48:00;99111.41;;;2.25;67.05
62402;BME280;48440;51.224;22.506;2022-12-29T04:50:25;99119.66;;;2.30;66.88
62402;BME280;48440;51.224;22.506;2022-12-29T04:52:51;99118.00;;;2.29;66.41
62402;BME280;48440;51.224;22.506;2022-12-29T04:55:16;99116.56;;;2.27;66.91
62402;BME280;48440;51.224;22.506;2022-12-29T04:57:42;99111.63;;;2.30;66.67
62402;BME280;48440;51.224;22.506;2022-12-29T05:00:08;99117.81;;;2.31;66.78
62402;BME280;48440;51.224;22.506;2022-12-29T05:02:37;99110.38;;;2.26;66.78
62402;BME280;48440;51.224;22.506;2022-12-29T05:05:03;99108.94;;;2.30;66.60
62402;BME280;48440;51.224;22.506;2022-12-29T05:07:29;99100.50;;;2.33;66.42
62402;BME280;48440;51.224;22.506;2022-12-29T05:09:54;99107.47;;;2.34;66.22
62402;BME280;48440;51.224;22.506;2022-12-29T05:12:20;99110.16;;;2.34;66.43
62402;BME280;48440;51.224;22.506;2022-12-29T05:14:45;99107.88;;;2.38;66.40
62402;BME280;48440;51.224;22.506;2022-12-29T05:17:11;99109.94;;;2.36;66.12
62402;BME280;48440;51.224;22.506;2022-12-29T05:19:37;99112.00;;;2.34;66.65
62402;BME280;48440;51.224;22.506;2022-12-29T05:22:03;99105.22;;;2.38;66.66
62402;BME280;48440;51.224;22.506;2022-12-29T05:24:29;99112.84;;;2.41;66.19
62402;BME280;48440;51.224;22.506;2022-12-29T05:26:55;99109.34;;;2.41;65.95
62402;BME280;48440;51.224;22.506;2022-12-29T05:29:20;99106.44;;;2.42;66.28
62402;BME280;48440;51.224;22.506;2022-12-29T05:31:45;99112.41;;;2.37;66.74
62402;BME280;48440;51.224;22.506;2022-12-29T05:34:11;99106.66;;;2.41;66.73
62402;BME280;48440;51.224;22.506;2022-12-29T05:36:37;99100.88;;;2.37;67.25
62402;BME280;48440;51.224;22.506;2022-12-29T05:39:03;99106.03;;;2.38;67.35
62402;BME280;48440;51.224;22.506;2022-12-29T05:41:28;99096.34;;;2.37;67.21
62402;BME280;48440;51.224;22.506;2022-12-29T05:43:54;99085.03;;;2.42;67.47
62402;BME280;48440;51.224;22.506;2022-12-29T05:46:19;99075.56;;;2.39;67.15
62402;BME280;48440;51.224;22.506;2022-12-29T05:48:45;99071.44;;;2.30;67.73
62402;BME280;48440;51.224;22.506;2022-12-29T05:51:10;99062.59;;;2.30;67.73
62402;BME280;48440;51.224;22.506;2022-12-29T05:53:35;99063.22;;;2.25;68.36
62402;BME280;48440;51.224;22.506;2022-12-29T05:56:01;99058.88;;;2.24;68.15
62402;BME280;48440;51.224;22.506;2022-12-29T05:58:27;99055.78;;;2.27;68.15
62402;BME280;48440;51.224;22.506;2022-12-29T06:00:53;99052.91;;;2.22;68.49
62402;BME280;48440;51.224;22.506;2022-12-29T06:03:18;99049.63;;;2.20;68.58
62402;BME280;48440;51.224;22.506;2022-12-29T06:05:45;99053.53;;;2.24;68.08
62402;BME280;48440;51.224;22.506;2022-12-29T06:08:11;99048.38;;;2.23;68.28
62402;BME280;48440;51.224;22.506;2022-12-29T06:10:37;99041.59;;;2.20;68.26
62402;BME280;48440;51.224;22.506;2022-12-29T06:13:02;99045.28;;;2.26;68.32
62402;BME280;48440;51.224;22.506;2022-12-29T06:15:33;99040.75;;;2.26;67.61
62402;BME280;48440;51.224;22.506;2022-12-29T06:17:59;99048.78;;;2.26;67.56
62402;BME280;48440;51.224;22.506;2022-12-29T06:20:25;99041.19;;;2.30;66.92
62402;BME280;48440;51.224;22.506;2022-12-29T06:22:50;99041.78;;;2.32;66.98
62402;BME280;48440;51.224;22.506;2022-12-29T06:25:16;99051.69;;;2.31;67.07
62402;BME280;48440;51.224;22.506;2022-12-29T06:27:42;99053.09;;;2.34;66.90
62402;BME280;48440;51.224;22.506;2022-12-29T06:30:09;99055.38;;;2.30;67.13
62402;BME280;48440;51.224;22.506;2022-12-29T06:32:35;99048.19;;;2.31;66.63
62402;BME280;48440;51.224;22.506;2022-12-29T06:35:02;99058.69;;;2.32;66.65
62402;BME280;48440;51.224;22.506;2022-12-29T06:37:27;99062.59;;;2.30;66.75
62402;BME280;48440;51.224;22.506;2022-12-29T06:39:53;99063.63;;;2.29;66.84
62402;BME280;48440;51.224;22.506;2022-12-29T06:42:18;99066.09;;;2.30;66.56
62402;BME280;48440;51.224;22.506;2022-12-29T06:44:44;99075.34;;;2.34;66.83
62402;BME280;48440;51.224;22.506;2022-12-29T06:47:10;99072.06;;;2.32;66.47
62402;BME280;48440;51.224;22.506;2022-12-29T06:49:35;99063.59;;;2.35;66.03
62402;BME280;48440;51.224;22.506;2022-12-29T06:52:01;99065.44;;;2.42;65.82
62402;BME280;48440;51.224;22.506;2022-12-29T06:54:29;99062.38;;;2.45;65.44
62402;BME280;48440;51.224;22.506;2022-12-29T06:56:55;99060.72;;;2.44;64.99
62402;BME280;48440;51.224;22.506;2022-12-29T06:59:20;99055.56;;;2.49;65.12
62402;BME280;48440;51.224;22.506;2022-12-29T07:01:46;99056.19;;;2.51;64.99
62402;BME280;48440;51.224;22.506;2022-12-29T07:04:11;99044.22;;;2.47;64.95
62402;BME280;48440;51.224;22.506;2022-12-29T07:06:40;99036.19;;;2.53;64.51
62402;BME280;48440;51.224;22.506;2022-12-29T07:09:06;99039.91;;;2.52;64.64
62402;BME280;48440;51.224;22.506;2022-12-29T07:11:32;99047.53;;;2.55;64.63
62402;BME280;48440;51.224;22.506;2022-12-29T07:13:58;99056.19;;;2.57;64.39
62402;BME280;48440;51.224;22.506;2022-12-29T07:16:26;99045.25;;;2.52;64.29
62402;BME280;48440;51.224;22.506;2022-12-29T07:18:55;99058.66;;;2.59;64.32
62402;BME280;48440;51.224;22.506;2022-12-29T07:21:20;99058.66;;;2.59;64.17
62402;BME280;48440;51.224;22.506;2022-12-29T07:23:46;99064.38;;;2.62;64.50
62402;BME280;48440;51.224;22.506;2022-12-29T07:26:13;99066.44;;;2.67;63.83
62402;BME280;48440;51.224;22.506;2022-12-29T07:28:39;99066.63;;;2.72;63.85
62402;BME280;48440;51.224;22.506;2022-12-29T07:31:06;99062.94;;;2.73;63.74
62402;BME280;48440;51.224;22.506;2022-12-29T07:33:32;99052.81;;;2.75;63.32
62402;BME280;48440;51.224;22.506;2022-12-29T07:35:58;99053.03;;;2.80;63.57
62402;BME280;48440;51.224;22.506;2022-12-29T07:38:24;99051.59;;;2.78;62.95
62402;BME280;48440;51.224;22.506;2022-12-29T07:40:50;99049.09;;;2.83;63.08
62402;BME280;48440;51.224;22.506;2022-12-29T07:43:15;99053.59;;;2.89;62.68
62402;BME280;48440;51.224;22.506;2022-12-29T07:45:41;99046.56;;;2.94;62.65
62402;BME280;48440;51.224;22.506;2022-12-29T07:48:06;99039.94;;;3.03;62.14
62402;BME280;48440;51.224;22.506;2022-12-29T07:50:35;99035.41;;;3.04;62.30
62402;BME280;48440;51.224;22.506;2022-12-29T07:53:01;99043.25;;;3.05;62.14
62402;BME280;48440;51.224;22.506;2022-12-29T07:55:27;99045.09;;;3.12;62.26
62402;BME280;48440;51.224;22.506;2022-12-29T07:57:54;99048.34;;;3.14;62.16
62402;BME280;48440;51.224;22.506;2022-12-29T08:00:20;99047.53;;;3.13;62.06
62402;BME280;48440;51.224;22.506;2022-12-29T08:02:45;99052.31;;;3.11;61.69
62402;BME280;48440;51.224;22.506;2022-12-29T08:05:11;99038.28;;;3.09;61.93
62402;BME280;48440;51.224;22.506;2022-12-29T08:07:37;99028.59;;;3.08;62.31
62402;BME280;48440;51.224;22.506;2022-12-29T08:10:03;99025.09;;;3.08;62.35
62402;BME280;48440;51.224;22.506;2022-12-29T08:12:28;99025.09;;;3.08;62.36
62402;BME280;48440;51.224;22.506;2022-12-29T08:14:54;99024.06;;;3.09;61.74
62402;BME280;48440;51.224;22.506;2022-12-29T08:17:20;99018.03;;;3.13;62.06
62402;BME280;48440;51.224;22.506;2022-12-29T08:19:45;99024.69;;;3.04;62.08
62402;BME280;48440;51.224;22.506;2022-12-29T08:22:13;99031.69;;;3.12;62.30
62402;BME280;48440;51.224;22.506;2022-12-29T08:24:39;99020.34;;;3.10;62.22
62402;BME280;48440;51.224;22.506;2022-12-29T08:27:05;99018.28;;;3.05;62.08
62402;BME280;48440;51.224;22.506;2022-12-29T08:29:30;99018.28;;;3.12;61.87
62402;BME280;48440;51.224;22.506;2022-12-29T08:31:55;99019.88;;;3.13;62.25
62402;BME280;48440;51.224;22.506;2022-12-29T08:34:21;99025.31;;;3.06;61.93
62402;BME280;48440;51.224;22.506;2022-12-29T08:36:47;99023.19;;;3.15;61.89
62402;BME280;48440;51.224;22.506;2022-12-29T08:39:12;99027.28;;;3.17;62.12
62402;BME280;48440;51.224;22.506;2022-12-29T08:41:38;99028.94;;;3.18;61.80
62402;BME280;48440;51.224;22.506;2022-12-29T08:44:04;99026.03;;;3.26;61.80
62402;BME280;48440;51.224;22.506;2022-12-29T08:46:29;99029.75;;;3.25;61.60
62402;BME280;48440;51.224;22.506;2022-12-29T08:48:55;99034.91;;;3.27;61.57
62402;BME280;48440;51.224;22.506;2022-12-29T08:51:20;99037.56;;;3.27;61.51
62402;BME280;48440;51.224;22.506;2022-12-29T08:53:45;99036.75;;;3.26;61.48
62402;BME280;48440;51.224;22.506;2022-12-29T08:56:11;99034.03;;;3.33;61.59
62402;BME280;48440;51.224;22.506;2022-12-29T08:58:37;99031.31;;;3.39;61.14
62402;BME280;48440;51.224;22.506;2022-12-29T09:01:02;99026.94;;;3.77;60.56
62402;BME280;48440;51.224;22.506;2022-12-29T09:03:28;99027.44;;;3.92;59.69
62402;BME280;48440;51.224;22.506;2022-12-29T09:05:54;99018.81;;;3.90;59.26
62402;BME280;48440;51.224;22.506;2022-12-29T09:08:20;99015.53;;;3.88;59.55
62402;BME280;48440;51.224;22.506;2022-12-29T09:10:46;99025.22;;;3.89;59.52
62402;BME280;48440;51.224;22.506;2022-12-29T09:13:13;99020.38;;;3.97;59.66
62402;BME280;48440;51.224;22.506;2022-12-29T09:15:39;99025.72;;;4.04;59.13
62402;BME280;48440;51.224;22.506;2022-12-29T09:18:05;99028.06;;;4.19;59.40
62402;BME280;48440;51.224;22.506;2022-12-29T09:20:31;99014.34;;;4.27;59.04
62402;BME280;48440;51.224;22.506;2022-12-29T09:22:56;99023.88;;;4.23;58.22
62402;BME280;48440;51.224;22.506;2022-12-29T09:25:22;99018.47;;;4.29;58.64
62402;BME280;48440;51.224;22.506;2022-12-29T09:27:50;98997.22;;;4.46;58.29
62402;BME280;48440;51.224;22.506;2022-12-29T09:30:17;99000.44;;;4.91;56.60
62402;BME280;48440;51.224;22.506;2022-12-29T09:32:43;98997.94;;;5.68;55.16
62402;BME280;48440;51.224;22.506;2022-12-29T09:35:13;98981.75;;;7.08;51.43
62402;BME280;48440;51.224;22.506;2022-12-29T09:37:39;98990.22;;;7.57;49.00
62402;BME280;48440;51.224;22.506;2022-12-29T09:40:05;98975.44;;;7.02;50.54
62402;BME280;48440;51.224;22.506;2022-12-29T09:47:34;98976.22;;;5.09;55.66
62402;BME280;48440;51.224;22.506;2022-12-29T09:50:22;98971.47;;;4.75;57.06
62402;BME280;48440;51.224;22.506;2022-12-29T09:52:50;98972.06;;;4.59;57.71
62402;BME280;48440;51.224;22.506;2022-12-29T09:55:21;98967.44;;;4.48;58.13
62402;BME280;48440;51.224;22.506;2022-12-29T09:57:49;98967.38;;;4.36;58.57
62402;BME280;48440;51.224;22.506;2022-12-29T10:00:20;98970.94;;;4.30;58.67
62402;BME280;48440;51.224;22.506;2022-12-29T10:02:52;98972.19;;;4.27;59.15
62402;BME280;48440;51.224;22.506;2022-12-29T10:05:35;98963.97;;;4.22;59.24
62402;BME280;48440;51.224;22.506;2022-12-29T10:16:09;98970.16;;;4.23;59.70
62402;BME280;48440;51.224;22.506;2022-12-29T10:21:53;98957.50;;;4.30;60.08
62402;BME280;48440;51.224;22.506;2022-12-29T10:24:22;98958.91;;;4.32;60.01
62402;BME280;48440;51.224;22.506;2022-12-29T10:26:51;98956.00;;;4.34;60.01
62402;BME280;48440;51.224;22.506;2022-12-29T10:29:22;98968.78;;;4.38;59.77
62402;BME280;48440;51.224;22.506;2022-12-29T10:32:00;98955.56;;;4.37;60.25
62402;BME280;48440;51.224;22.506;2022-12-29T10:34:36;98956.16;;;4.39;59.88
62402;BME280;48440;51.224;22.506;2022-12-29T10:40:03;98954.44;;;4.44;59.57
62402;BME280;48440;51.224;22.506;2022-12-29T10:42:41;98946.97;;;4.47;59.94
62402;BME280;48440;51.224;22.506;2022-12-29T10:45:13;98936.38;;;4.52;59.46
62402;BME280;48440;51.224;22.506;2022-12-29T10:48:09;98929.50;;;4.56;59.47
62402;BME280;48440;51.224;22.506;2022-12-29T10:50:33;98925.94;;;4.62;59.52
62402;BME280;48440;51.224;22.506;2022-12-29T10:53:01;98912.06;;;4.65;59.66
62402;BME280;48440;51.224;22.506;2022-12-29T10:55:32;98911.34;;;4.69;59.15
62402;BME280;48440;51.224;22.506;2022-12-29T10:58:02;98901.91;;;4.67;59.48
62402;BME280;48440;51.224;22.506;2022-12-29T11:00:30;98896.97;;;4.64;59.24
62402;BME280;48440;51.224;22.506;2022-12-29T11:08:19;98900.53;;;4.76;59.60
62402;BME280;48440;51.224;22.506;2022-12-29T11:10:46;98899.47;;;4.77;59.57
62402;BME280;48440;51.224;22.506;2022-12-29T11:13:17;98894.16;;;4.89;59.61
62402;BME280;48440;51.224;22.506;2022-12-29T11:15:50;98894.09;;;5.07;59.08
62402;BME280;48440;51.224;22.506;2022-12-29T11:18:32;98890.53;;;5.25;57.71
62402;BME280;48440;51.224;22.506;2022-12-29T11:21:03;98884.34;;;5.36;57.65
62402;BME280;48440;51.224;22.506;2022-12-29T11:23:40;98889.88;;;5.53;57.28
62402;BME280;48440;51.224;22.506;2022-12-29T11:28:39;98876.69;;;5.63;57.12
62402;BME280;48440;51.224;22.506;2022-12-29T11:31:06;98885.69;;;5.68;56.53
62402;BME280;48440;51.224;22.506;2022-12-29T11:33:34;98887.34;;;5.69;56.17
62402;BME280;48440;51.224;22.506;2022-12-29T11:36:15;98887.78;;;5.78;56.22
62402;BME280;48440;51.224;22.506;2022-12-29T11:38:46;98890.03;;;6.04;55.71
62402;BME280;48440;51.224;22.506;2022-12-29T11:41:18;98893.56;;;6.17;55.32
62402;BME280;48440;51.224;22.506;2022-12-29T11:43:45;98884.97;;;6.43;55.22
62402;BME280;48440;51.224;22.506;2022-12-29T11:46:25;98899.03;;;6.85;54.71
62402;BME280;48440;51.224;22.506;2022-12-29T11:48:52;98902.50;;;6.97;53.57
62402;BME280;48440;51.224;22.506;2022-12-29T11:51:45;98897.44;;;7.01;53.64
62402;BME280;48440;51.224;22.506;2022-12-29T11:54:21;98899.81;;;6.97;53.44
62402;BME280;48440;51.224;22.506;2022-12-29T11:56:48;98894.75;;;6.72;54.39
62402;BME280;48440;51.224;22.506;2022-12-29T12:02:11;98899.06;;;6.22;55.70
62402;BME280;48440;51.224;22.506;2022-12-29T12:04:43;98889.69;;;6.01;56.77
62402;BME280;48440;51.224;22.506;2022-12-29T12:10:04;98901.97;;;5.85;57.61
62402;BME280;48440;51.224;22.506;2022-12-29T12:12:47;98888.03;;;5.76;58.13
62402;BME280;48440;51.224;22.506;2022-12-29T12:18:19;98897.38;;;5.74;58.43
62402;BME280;48440;51.224;22.506;2022-12-29T12:20:52;98903.50;;;5.69;58.73
62402;BME280;48440;51.224;22.506;2022-12-29T12:26:16;98900.41;;;5.54;58.58
62402;BME280;48440;51.224;22.506;2022-12-29T12:28:53;98907.31;;;5.50;58.69
62402;BME280;48440;51.224;22.506;2022-12-29T12:34:01;98902.16;;;5.49;58.14
62402;BME280;48440;51.224;22.506;2022-12-29T12:44:44;98896.31;;;5.40;58.84
62402;BME280;48440;51.224;22.506;2022-12-29T12:47:31;98896.91;;;5.42;59.07
62402;BME280;48440;51.224;22.506;2022-12-29T12:50:32;98900.50;;;5.47;59.38
62402;BME280;48440;51.224;22.506;2022-12-29T12:58:23;98894.56;;;5.57;59.16
62402;BME280;48440;51.224;22.506;2022-12-29T13:06:51;98901.59;;;5.58;59.82
62402;BME280;48440;51.224;22.506;2022-12-29T13:17:33;98893.28;;;5.60;59.81
62402;BME280;48440;51.224;22.506;2022-12-29T13:31:12;98902.28;;;5.54;60.00
62402;BME280;48440;51.224;22.506;2022-12-29T13:33:50;98900.66;;;5.53;60.14
62402;BME280;48440;51.224;22.506;2022-12-29T13:39:34;98899.69;;;5.47;60.37
62402;BME280;48440;51.224;22.506;2022-12-29T13:42:01;98905.19;;;5.40;60.49
62402;BME280;48440;51.224;22.506;2022-12-29T13:44:37;98901.91;;;5.38;60.61
62402;BME280;48440;51.224;22.506;2022-12-29T13:50:05;98901.19;;;5.31;59.87
62402;BME280;48440;51.224;22.506;2022-12-29T13:52:45;98894.75;;;5.32;60.11
62402;BME280;48440;51.224;22.506;2022-12-29T13:58:11;98904.78;;;5.25;60.20
62402;BME280;48440;51.224;22.506;2022-12-29T14:00:48;98906.88;;;5.23;60.11
62402;BME280;48440;51.224;22.506;2022-12-29T14:08:38;98911.69;;;5.21;61.00
62402;BME280;48440;51.224;22.506;2022-12-29T14:11:12;98907.94;;;5.22;60.77
62402;BME280;48440;51.224;22.506;2022-12-29T14:13:41;98901.97;;;5.20;61.12
62402;BME280;48440;51.224;22.506;2022-12-29T14:16:22;98901.97;;;5.20;61.16
62402;BME280;48440;51.224;22.506;2022-12-29T14:18:50;98902.31;;;5.12;61.14
62402;BME280;48440;51.224;22.506;2022-12-29T14:23:44;98899.84;;;5.10;61.70
62402;BME280;48440;51.224;22.506;2022-12-29T14:26:15;98893.75;;;5.03;61.50
62402;BME280;48440;51.224;22.506;2022-12-29T14:28:46;98890.44;;;5.01;61.85
62402;BME280;48440;51.224;22.506;2022-12-29T14:45:02;98890.78;;;4.93;62.71
62402;BME280;48440;51.224;22.506;2022-12-29T14:49:56;98887.75;;;4.90;62.29
62402;BME280;48440;51.224;22.506;2022-12-29T14:52:28;98893.94;;;4.90;62.28
62402;BME280;48440;51.224;22.506;2022-12-29T14:54:57;98891.25;;;4.90;62.66
62402;BME280;48440;51.224;22.506;2022-12-29T14:57:37;98899.75;;;4.87;62.82
62402;BME280;48440;51.224;22.506;2022-12-29T15:02:35;98904.53;;;4.85;62.64
62402;BME280;48440;51.224;22.506;2022-12-29T15:05:05;98904.31;;;4.87;62.68
62402;BME280;48440;51.224;22.506;2022-12-29T15:07:32;98898.13;;;4.86;62.59
62402;BME280;48440;51.224;22.506;2022-12-29T15:10:13;98894.47;;;4.81;62.93
62402;BME280;48440;51.224;22.506;2022-12-29T15:12:49;98902.31;;;4.82;62.73
62402;BME280;48440;51.224;22.506;2022-12-29T15:15:23;98906.88;;;4.82;63.05
62402;BME280;48440;51.224;22.506;2022-12-29T15:17:49;98902.31;;;4.82;63.03
62402;BME280;48440;51.224;22.506;2022-12-29T15:22:53;98899.41;;;4.84;62.75
62402;BME280;48440;51.224;22.506;2022-12-29T15:25:19;98906.03;;;4.81;63.11
62402;BME280;48440;51.224;22.506;2022-12-29T15:27:59;98889.75;;;4.76;63.30
62402;BME280;48440;51.224;22.506;2022-12-29T15:30:25;98896.78;;;4.77;63.44
62402;BME280;48440;51.224;22.506;2022-12-29T15:32:51;98894.09;;;4.77;63.57
62402;BME280;48440;51.224;22.506;2022-12-29T15:35:35;98895.16;;;4.76;63.80
62402;BME280;48440;51.224;22.506;2022-12-29T15:38:14;98893.28;;;4.76;64.03
62402;BME280;48440;51.224;22.506;2022-12-29T15:40:43;98891.63;;;4.75;63.91
62402;BME280;48440;51.224;22.506;2022-12-29T15:45:41;98888.50;;;4.78;64.08
62402;BME280;48440;51.224;22.506;2022-12-29T15:48:15;98893.06;;;4.78;63.53
62402;BME280;48440;51.224;22.506;2022-12-29T15:50:41;98890.38;;;4.78;63.54